sensor_id;sensor_type;location;lat;lon;timestamp;pressure;altitude;pressure_sealevel;temperature;humidity
70343;BME280;57767;42.068;24.752;2023-04-28T00:00:57;99084.59;;;11.03;43.35
70343;BME280;57767;42.068;24.752;2023-04-28T00:01:58;99086.84;;;11.00;43.16
70343;BME280;57767;42.068;24.752;2023-04-28T00:03:00;99090.91;;;11.02;43.39
70343;BME280;57767;42.068;24.752;2023-04-28T00:04:02;99079.13;;;10.98;43.32
70343;BME280;57767;42.068;24.752;2023-04-28T00:05:04;99076.69;;;10.97;43.91
70343;BME280;57767;42.068;24.752;2023-04-28T00:06:07;99088.25;;;11.02;44.16
70343;BME280;57767;42.068;24.752;2023-04-28T00:07:08;99085.63;;;11.02;44.34
70343;BME280;57767;42.068;24.752;2023-04-28T00:08:10;99080.31;;;11.02;43.18
70343;BME280;57767;42.068;24.752;2023-04-28T00:09:12;99071.41;;;10.90;43.48
70343;BME280;57767;42.068;24.752;2023-04-28T00:10:14;99085.03;;;11.00;42.81
70343;BME280;57767;42.068;24.752;2023-04-28T00:11:16;99081.78;;;10.98;43.06
70343;BME280;57767;42.068;24.752;2023-04-28T00:12:17;99083.41;;;10.99;43.57
70343;BME280;57767;42.068;24.752;2023-04-28T00:13:19;99081.38;;;10.95;43.68
70343;BME280;57767;42.068;24.752;2023-04-28T00:14:21;99081.16;;;10.96;43.33
70343;BME280;57767;42.068;24.752;2023-04-28T00:15:23;99072.41;;;10.89;43.16
70343;BME280;57767;42.068;24.752;2023-04-28T00:16:24;99081.16;;;10.90;43.14
70343;BME280;57767;42.068;24.752;2023-04-28T00:17:26;99085.03;;;10.87;43.23
70343;BME280;57767;42.068;24.752;2023-04-28T00:18:28;99077.91;;;10.81;43.87
70343;BME280;57767;42.068;24.752;2023-04-28T00:19:30;99083.59;;;10.85;43.48
70343;BME280;57767;42.068;24.752;2023-04-28T00:20:32;99077.50;;;10.84;42.82
70343;BME280;57767;42.068;24.752;2023-04-28T00:21:34;99077.50;;;10.84;43.29
70343;BME280;57767;42.068;24.752;2023-04-28T00:22:36;99077.50;;;10.84;43.28
70343;BME280;57767;42.068;24.752;2023-04-28T00:23:38;99076.28;;;10.80;43.38
70343;BME280;57767;42.068;24.752;2023-04-28T00:24:40;99078.91;;;10.80;43.78
70343;BME280;57767;42.068;24.752;2023-04-28T00:25:42;99078.31;;;10.78;43.78
70343;BME280;57767;42.068;24.752;2023-04-28T00:26:44;99092.13;;;10.80;43.71
70343;BME280;57767;42.068;24.752;2023-04-28T00:27:45;99075.47;;;10.80;43.39
70343;BME280;57767;42.068;24.752;2023-04-28T00:28:47;99076.47;;;10.78;43.59
70343;BME280;57767;42.068;24.752;2023-04-28T00:29:49;99077.28;;;10.79;42.84
70343;BME280;57767;42.068;24.752;2023-04-28T00:30:51;99073.47;;;10.75;43.35
70343;BME280;57767;42.068;24.752;2023-04-28T00:31:52;99082.41;;;10.74;43.25
70343;BME280;57767;42.068;24.752;2023-04-28T00:32:54;99077.50;;;10.71;43.46
70343;BME280;57767;42.068;24.752;2023-04-28T00:33:57;99082.19;;;10.69;43.11
70343;BME280;57767;42.068;24.752;2023-04-28T00:34:58;99081.56;;;10.67;43.55
70343;BME280;57767;42.068;24.752;2023-04-28T00:36:00;99089.09;;;10.70;43.62
70343;BME280;57767;42.068;24.752;2023-04-28T00:37:02;99081.16;;;10.70;43.29
70343;BME280;57767;42.068;24.752;2023-04-28T00:38:05;99082.78;;;10.71;43.99
70343;BME280;57767;42.068;24.752;2023-04-28T00:39:06;99065.31;;;10.70;43.30
70343;BME280;57767;42.068;24.752;2023-04-28T00:40:08;99076.69;;;10.70;42.91
70343;BME280;57767;42.068;24.752;2023-04-28T00:41:10;99077.50;;;10.71;43.07
70343;BME280;57767;42.068;24.752;2023-04-28T00:42:15;99072.22;;;10.64;42.73
70343;BME280;57767;42.068;24.752;2023-04-28T00:43:17;99079.75;;;10.67;43.54
70343;BME280;57767;42.068;24.752;2023-04-28T00:44:19;99079.94;;;10.66;43.51
70343;BME280;57767;42.068;24.752;2023-04-28T00:45:21;99080.94;;;10.65;43.36
70343;BME280;57767;42.068;24.752;2023-04-28T00:46:29;99080.75;;;10.66;43.13
70343;BME280;57767;42.068;24.752;2023-04-28T00:47:35;99075.28;;;10.68;43.95
70343;BME280;57767;42.068;24.752;2023-04-28T00:48:37;99079.13;;;10.65;43.47
70343;BME280;57767;42.068;24.752;2023-04-28T00:49:39;99078.31;;;10.65;43.23
70343;BME280;57767;42.068;24.752;2023-04-28T00:50:42;99081.97;;;10.64;43.47
70343;BME280;57767;42.068;24.752;2023-04-28T00:51:44;99079.75;;;10.61;43.71
70343;BME280;57767;42.068;24.752;2023-04-28T00:52:46;99078.94;;;10.60;43.89
70343;BME280;57767;42.068;24.752;2023-04-28T00:53:49;99084.03;;;10.62;43.48
70343;BME280;57767;42.068;24.752;2023-04-28T00:54:51;99077.31;;;10.59;44.29
70343;BME280;57767;42.068;24.752;2023-04-28T00:55:53;99080.75;;;10.60;43.73
70343;BME280;57767;42.068;24.752;2023-04-28T00:56:57;99075.88;;;10.57;43.06
70343;BME280;57767;42.068;24.752;2023-04-28T00:57:59;99079.34;;;10.57;43.14
70343;BME280;57767;42.068;24.752;2023-04-28T00:59:01;99080.53;;;10.55;43.58
70343;BME280;57767;42.068;24.752;2023-04-28T01:00:03;99083.38;;;10.53;43.57
70343;BME280;57767;42.068;24.752;2023-04-28T01:01:06;99084.63;;;10.51;43.08
70343;BME280;57767;42.068;24.752;2023-04-28T01:02:08;99085.00;;;10.48;44.09
70343;BME280;57767;42.068;24.752;2023-04-28T01:03:17;99083.59;;;10.45;43.44
70343;BME280;57767;42.068;24.752;2023-04-28T01:04:20;99075.88;;;10.37;44.05
70343;BME280;57767;42.068;24.752;2023-04-28T01:05:24;99081.16;;;10.37;44.10
70343;BME280;57767;42.068;24.752;2023-04-28T01:06:27;99080.91;;;10.32;44.16
70343;BME280;57767;42.068;24.752;2023-04-28T01:07:29;99079.09;;;10.32;44.27
70343;BME280;57767;42.068;24.752;2023-04-28T01:08:32;99082.56;;;10.33;44.04
70343;BME280;57767;42.068;24.752;2023-04-28T01:09:34;99076.84;;;10.29;44.09
70343;BME280;57767;42.068;24.752;2023-04-28T01:10:42;99080.50;;;10.28;44.27
70343;BME280;57767;42.068;24.752;2023-04-28T01:11:44;99077.47;;;10.25;44.35
70343;BME280;57767;42.068;24.752;2023-04-28T01:12:46;99085.16;;;10.26;44.31
70343;BME280;57767;42.068;24.752;2023-04-28T01:13:47;99082.53;;;10.26;44.71
70343;BME280;57767;42.068;24.752;2023-04-28T01:14:49;99073.78;;;10.19;43.99
70343;BME280;57767;42.068;24.752;2023-04-28T01:15:51;99075.78;;;10.17;44.73
70343;BME280;57767;42.068;24.752;2023-04-28T01:16:53;99086.19;;;10.19;44.69
70343;BME280;57767;42.068;24.752;2023-04-28T01:17:55;99085.72;;;10.15;45.00
70343;BME280;57767;42.068;24.752;2023-04-28T01:18:59;99082.50;;;10.13;44.91
70343;BME280;57767;42.068;24.752;2023-04-28T01:20:01;99086.72;;;10.07;44.70
70343;BME280;57767;42.068;24.752;2023-04-28T01:21:02;99084.72;;;10.10;45.14
70343;BME280;57767;42.068;24.752;2023-04-28T01:22:04;99083.91;;;10.09;44.54
70343;BME280;57767;42.068;24.752;2023-04-28T01:23:15;99080.22;;;10.03;45.77
70343;BME280;57767;42.068;24.752;2023-04-28T01:24:17;99083.47;;;9.99;45.20
70343;BME280;57767;42.068;24.752;2023-04-28T01:25:19;99087.94;;;9.98;45.29
70343;BME280;57767;42.068;24.752;2023-04-28T01:26:21;99083.84;;;9.96;45.57
70343;BME280;57767;42.068;24.752;2023-04-28T01:27:23;99082.22;;;9.95;45.24
70343;BME280;57767;42.068;24.752;2023-04-28T01:28:25;99080.59;;;9.94;44.99
70343;BME280;57767;42.068;24.752;2023-04-28T01:29:27;99080.22;;;9.97;45.58
70343;BME280;57767;42.068;24.752;2023-04-28T01:30:29;99080.81;;;9.99;44.92
70343;BME280;57767;42.068;24.752;2023-04-28T01:31:30;99087.13;;;9.98;45.46
70343;BME280;57767;42.068;24.752;2023-04-28T01:32:32;99083.22;;;9.94;45.62
70343;BME280;57767;42.068;24.752;2023-04-28T01:33:34;99086.25;;;9.91;45.47
70343;BME280;57767;42.068;24.752;2023-04-28T01:34:37;99085.44;;;9.90;44.92
70343;BME280;57767;42.068;24.752;2023-04-28T01:35:39;99077.72;;;9.89;44.98
70343;BME280;57767;42.068;24.752;2023-04-28T01:36:41;99089.09;;;9.89;45.20
70343;BME280;57767;42.068;24.752;2023-04-28T01:37:43;99086.06;;;9.86;44.94
70343;BME280;57767;42.068;24.752;2023-04-28T01:38:45;99090.31;;;9.87;45.18
70343;BME280;57767;42.068;24.752;2023-04-28T01:39:46;99091.72;;;9.83;44.68
70343;BME280;57767;42.068;24.752;2023-04-28T01:40:48;99086.63;;;9.81;45.63
70343;BME280;57767;42.068;24.752;2023-04-28T01:41:50;99057.34;;;9.63;45.36
70343;BME280;57767;42.068;24.752;2023-04-28T01:42:51;99094.34;;;9.83;45.67
70343;BME280;57767;42.068;24.752;2023-04-28T01:43:53;99089.91;;;9.83;46.05
70343;BME280;57767;42.068;24.752;2023-04-28T01:44:55;99092.09;;;9.80;45.19
70343;BME280;57767;42.068;24.752;2023-04-28T01:45:57;99101.66;;;9.81;45.19
70343;BME280;57767;42.068;24.752;2023-04-28T01:46:58;99083.94;;;9.68;45.46
70343;BME280;57767;42.068;24.752;2023-04-28T01:48:00;99096.94;;;9.76;45.40
70343;BME280;57767;42.068;24.752;2023-04-28T01:49:02;99096.13;;;9.69;45.59
70343;BME280;57767;42.068;24.752;2023-04-28T01:50:04;99097.56;;;9.72;46.24
70343;BME280;57767;42.068;24.752;2023-04-28T01:51:06;99088.63;;;9.73;45.43
70343;BME280;57767;42.068;24.752;2023-04-28T01:52:08;99090.84;;;9.76;45.88
70343;BME280;57767;42.068;24.752;2023-04-28T01:53:10;99087.44;;;9.75;46.22
70343;BME280;57767;42.068;24.752;2023-04-28T01:54:12;99084.19;;;9.73;46.09
70343;BME280;57767;42.068;24.752;2023-04-28T01:55:14;99088.63;;;9.73;45.08
70343;BME280;57767;42.068;24.752;2023-04-28T01:56:16;99092.22;;;9.65;45.51
70343;BME280;57767;42.068;24.752;2023-04-28T01:57:17;99091.22;;;9.66;45.41
70343;BME280;57767;42.068;24.752;2023-04-28T01:58:22;99092.41;;;9.57;45.35
70343;BME280;57767;42.068;24.752;2023-04-28T01:59:24;99087.94;;;9.57;45.23
70343;BME280;57767;42.068;24.752;2023-04-28T02:00:26;99095.06;;;9.57;45.68
70343;BME280;57767;42.068;24.752;2023-04-28T02:01:28;99087.94;;;9.57;46.03
70343;BME280;57767;42.068;24.752;2023-04-28T02:02:29;99092.97;;;9.52;45.28
70343;BME280;57767;42.068;24.752;2023-04-28T02:03:31;99095.44;;;9.54;45.31
70343;BME280;57767;42.068;24.752;2023-04-28T02:04:33;99100.91;;;9.52;45.41
70343;BME280;57767;42.068;24.752;2023-04-28T02:05:35;99097.44;;;9.52;44.95
70343;BME280;57767;42.068;24.752;2023-04-28T02:06:37;99098.44;;;9.51;45.53
70343;BME280;57767;42.068;24.752;2023-04-28T02:07:39;99097.84;;;9.49;45.48
70343;BME280;57767;42.068;24.752;2023-04-28T02:08:40;99094.59;;;9.47;45.54
70343;BME280;57767;42.068;24.752;2023-04-28T02:09:42;99099.06;;;9.46;45.02
70343;BME280;57767;42.068;24.752;2023-04-28T02:10:44;99104.50;;;9.45;44.86
70343;BME280;57767;42.068;24.752;2023-04-28T02:11:46;99096.81;;;9.43;44.52
70343;BME280;57767;42.068;24.752;2023-04-28T02:12:48;99102.63;;;9.39;44.91
70343;BME280;57767;42.068;24.752;2023-04-28T02:13:49;99102.44;;;9.40;45.56
70343;BME280;57767;42.068;24.752;2023-04-28T02:14:51;99096.56;;;9.38;44.66
70343;BME280;57767;42.068;24.752;2023-04-28T02:15:53;99097.97;;;9.34;44.90
70343;BME280;57767;42.068;24.752;2023-04-28T02:16:55;99096.97;;;9.35;45.11
70343;BME280;57767;42.068;24.752;2023-04-28T02:17:57;99091.06;;;9.33;45.05
70343;BME280;57767;42.068;24.752;2023-04-28T02:18:59;99108.13;;;9.37;45.58
70343;BME280;57767;42.068;24.752;2023-04-28T02:20:00;99093.28;;;9.29;45.10
70343;BME280;57767;42.068;24.752;2023-04-28T02:21:11;99105.25;;;9.32;45.09
70343;BME280;57767;42.068;24.752;2023-04-28T02:22:13;99091.00;;;9.26;45.71
70343;BME280;57767;42.068;24.752;2023-04-28T02:23:15;99105.44;;;9.30;45.23
70343;BME280;57767;42.068;24.752;2023-04-28T02:24:17;99103.44;;;9.32;45.05
70343;BME280;57767;42.068;24.752;2023-04-28T02:25:19;99103.81;;;9.29;45.06
70343;BME280;57767;42.068;24.752;2023-04-28T02:26:20;99112.53;;;9.30;44.42
70343;BME280;57767;42.068;24.752;2023-04-28T02:27:23;99113.91;;;9.26;44.78
70343;BME280;57767;42.068;24.752;2023-04-28T02:28:25;99105.81;;;9.27;44.76
70343;BME280;57767;42.068;24.752;2023-04-28T02:29:27;99110.69;;;9.24;44.93
70343;BME280;57767;42.068;24.752;2023-04-28T02:30:28;99114.91;;;9.25;44.88
70343;BME280;57767;42.068;24.752;2023-04-28T02:31:30;99111.06;;;9.21;44.71
70343;BME280;57767;42.068;24.752;2023-04-28T02:32:32;99102.91;;;9.16;45.04
70343;BME280;57767;42.068;24.752;2023-04-28T02:33:35;99117.97;;;9.22;45.00
70343;BME280;57767;42.068;24.752;2023-04-28T02:34:37;99114.25;;;9.16;44.83
70343;BME280;57767;42.068;24.752;2023-04-28T02:35:38;99121.34;;;9.16;44.60
70343;BME280;57767;42.068;24.752;2023-04-28T02:36:40;99118.09;;;9.14;44.55
70343;BME280;57767;42.068;24.752;2023-04-28T02:37:42;99113.59;;;9.08;44.91
70343;BME280;57767;42.068;24.752;2023-04-28T02:38:43;99115.84;;;9.11;44.55
70343;BME280;57767;42.068;24.752;2023-04-28T02:39:45;99126.41;;;9.11;44.28
70343;BME280;57767;42.068;24.752;2023-04-28T02:40:47;99125.41;;;9.12;45.34
70343;BME280;57767;42.068;24.752;2023-04-28T02:41:49;99121.31;;;9.09;44.36
70343;BME280;57767;42.068;24.752;2023-04-28T02:42:50;99114.59;;;9.07;44.91
70343;BME280;57767;42.068;24.752;2023-04-28T02:43:52;99117.25;;;9.07;44.93
70343;BME280;57767;42.068;24.752;2023-04-28T02:44:54;99118.25;;;9.06;44.31
70343;BME280;57767;42.068;24.752;2023-04-28T02:45:56;99113.97;;;9.05;44.38
70343;BME280;57767;42.068;24.752;2023-04-28T02:46:58;99111.53;;;9.03;44.24
70343;BME280;57767;42.068;24.752;2023-04-28T02:48:01;99114.16;;;9.03;44.14
70343;BME280;57767;42.068;24.752;2023-04-28T02:49:04;99108.47;;;8.99;43.58
70343;BME280;57767;42.068;24.752;2023-04-28T02:50:06;99108.47;;;8.99;44.26
70343;BME280;57767;42.068;24.752;2023-04-28T02:51:08;99103.78;;;8.95;44.10
70343;BME280;57767;42.068;24.752;2023-04-28T02:52:10;99107.44;;;9.01;43.91
70343;BME280;57767;42.068;24.752;2023-04-28T02:53:12;99095.50;;;8.98;43.50
70343;BME280;57767;42.068;24.752;2023-04-28T02:54:14;99117.44;;;9.05;44.22
70343;BME280;57767;42.068;24.752;2023-04-28T02:55:16;99114.97;;;9.04;43.52
70343;BME280;57767;42.068;24.752;2023-04-28T02:56:24;99112.34;;;9.04;43.97
70343;BME280;57767;42.068;24.752;2023-04-28T02:57:26;99102.78;;;8.96;43.94
70343;BME280;57767;42.068;24.752;2023-04-28T02:58:28;99111.09;;;8.99;43.93
70343;BME280;57767;42.068;24.752;2023-04-28T02:59:30;99106.63;;;9.00;43.33
70343;BME280;57767;42.068;24.752;2023-04-28T03:00:31;99111.72;;;9.02;43.59
70343;BME280;57767;42.068;24.752;2023-04-28T03:01:33;99107.44;;;9.01;43.65
70343;BME280;57767;42.068;24.752;2023-04-28T03:02:35;99111.34;;;9.05;43.80
70343;BME280;57767;42.068;24.752;2023-04-28T03:03:37;99113.34;;;9.03;43.66
70343;BME280;57767;42.068;24.752;2023-04-28T03:04:39;99102.16;;;8.94;43.26
70343;BME280;57767;42.068;24.752;2023-04-28T03:05:41;99113.72;;;8.99;43.61
70343;BME280;57767;42.068;24.752;2023-04-28T03:06:43;99116.97;;;9.02;43.30
70343;BME280;57767;42.068;24.752;2023-04-28T03:07:45;99103.19;;;8.99;43.45
70343;BME280;57767;42.068;24.752;2023-04-28T03:08:47;99112.34;;;9.04;43.89
70343;BME280;57767;42.068;24.752;2023-04-28T03:09:48;99110.53;;;9.04;43.14
70343;BME280;57767;42.068;24.752;2023-04-28T03:10:50;99113.34;;;9.03;44.00
70343;BME280;57767;42.068;24.752;2023-04-28T03:11:52;99111.53;;;9.03;43.21
70343;BME280;57767;42.068;24.752;2023-04-28T03:12:54;99102.59;;;8.97;43.56
70343;BME280;57767;42.068;24.752;2023-04-28T03:13:55;99102.81;;;9.03;42.97
70343;BME280;57767;42.068;24.752;2023-04-28T03:14:57;99113.97;;;9.05;43.27
70343;BME280;57767;42.068;24.752;2023-04-28T03:15:59;99092.44;;;8.94;43.24
70343;BME280;57767;42.068;24.752;2023-04-28T03:17:01;99111.72;;;9.02;43.59
70343;BME280;57767;42.068;24.752;2023-04-28T03:18:02;99108.09;;;9.03;43.27
70343;BME280;57767;42.068;24.752;2023-04-28T03:19:04;99114.16;;;9.03;43.31
70343;BME280;57767;42.068;24.752;2023-04-28T03:20:07;99119.44;;;9.03;43.07
70343;BME280;57767;42.068;24.752;2023-04-28T03:21:09;99113.97;;;9.05;43.52
70343;BME280;57767;42.068;24.752;2023-04-28T03:22:11;99116.59;;;9.05;43.01
70343;BME280;57767;42.068;24.752;2023-04-28T03:23:13;99099.16;;;8.97;43.81
70343;BME280;57767;42.068;24.752;2023-04-28T03:24:14;99113.34;;;9.03;43.42
70343;BME280;57767;42.068;24.752;2023-04-28T03:25:17;99115.34;;;9.01;43.70
70343;BME280;57767;42.068;24.752;2023-04-28T03:26:19;99109.50;;;8.98;43.90
70343;BME280;57767;42.068;24.752;2023-04-28T03:27:21;99110.88;;;8.94;43.88
70343;BME280;57767;42.068;24.752;2023-04-28T03:28:23;99118.41;;;8.97;44.06
70343;BME280;57767;42.068;24.752;2023-04-28T03:29:25;99116.56;;;8.98;43.77
70343;BME280;57767;42.068;24.752;2023-04-28T03:30:27;99120.03;;;8.98;43.96
70343;BME280;57767;42.068;24.752;2023-04-28T03:31:28;99122.66;;;8.98;43.83
70343;BME280;57767;42.068;24.752;2023-04-28T03:32:30;99123.03;;;8.95;44.12
70343;BME280;57767;42.068;24.752;2023-04-28T03:33:32;99128.94;;;8.97;43.50
70343;BME280;57767;42.068;24.752;2023-04-28T03:34:34;99126.28;;;8.97;42.91
70343;BME280;57767;42.068;24.752;2023-04-28T03:35:36;99136.66;;;8.99;43.62
70343;BME280;57767;42.068;24.752;2023-04-28T03:36:38;99125.47;;;8.97;44.26
70343;BME280;57767;42.068;24.752;2023-04-28T03:37:39;99125.84;;;8.94;43.93
70343;BME280;57767;42.068;24.752;2023-04-28T03:38:41;99135.56;;;8.93;43.82
70343;BME280;57767;42.068;24.752;2023-04-28T03:39:43;99133.94;;;8.92;43.81
70343;BME280;57767;42.068;24.752;2023-04-28T03:40:44;99140.47;;;8.96;43.91
70343;BME280;57767;42.068;24.752;2023-04-28T03:41:46;99135.56;;;8.93;43.78
70343;BME280;57767;42.068;24.752;2023-04-28T03:42:48;99141.84;;;8.92;43.62
70343;BME280;57767;42.068;24.752;2023-04-28T03:43:50;99149.38;;;8.95;44.13
70343;BME280;57767;42.068;24.752;2023-04-28T03:44:53;99140.41;;;8.90;44.07
70343;BME280;57767;42.068;24.752;2023-04-28T03:45:55;99140.41;;;8.90;43.83
70343;BME280;57767;42.068;24.752;2023-04-28T03:46:57;99152.19;;;8.94;44.24
70343;BME280;57767;42.068;24.752;2023-04-28T03:47:59;99157.91;;;8.97;43.66
70343;BME280;57767;42.068;24.752;2023-04-28T03:49:01;99145.28;;;8.93;43.82
70343;BME280;57767;42.068;24.752;2023-04-28T03:50:02;99136.38;;;8.94;43.63
70343;BME280;57767;42.068;24.752;2023-04-28T03:51:04;99159.09;;;8.95;44.36
70343;BME280;57767;42.068;24.752;2023-04-28T03:52:06;99160.53;;;8.97;43.72
70343;BME280;57767;42.068;24.752;2023-04-28T03:53:08;99155.94;;;9.06;43.54
70343;BME280;57767;42.068;24.752;2023-04-28T03:54:10;99160.50;;;9.19;43.27
70343;BME280;57767;42.068;24.752;2023-04-28T03:55:11;99160.53;;;9.25;43.12
70343;BME280;57767;42.068;24.752;2023-04-28T03:56:13;99165.47;;;9.35;43.36
70343;BME280;57767;42.068;24.752;2023-04-28T03:57:15;99166.31;;;9.42;43.77
70343;BME280;57767;42.068;24.752;2023-04-28T03:58:17;99166.78;;;9.52;42.81
70343;BME280;57767;42.068;24.752;2023-04-28T03:59:19;99175.19;;;9.62;42.77
70343;BME280;57767;42.068;24.752;2023-04-28T04:00:21;99177.84;;;9.69;42.47
70343;BME280;57767;42.068;24.752;2023-04-28T04:01:23;99181.13;;;9.78;42.05
70343;BME280;57767;42.068;24.752;2023-04-28T04:02:26;99181.19;;;9.84;41.60
70343;BME280;57767;42.068;24.752;2023-04-28T04:03:28;99175.31;;;9.89;42.03
70343;BME280;57767;42.068;24.752;2023-04-28T04:04:30;99182.06;;;9.98;41.10
70343;BME280;57767;42.068;24.752;2023-04-28T04:05:32;99178.44;;;10.05;41.47
70343;BME280;57767;42.068;24.752;2023-04-28T04:06:34;99187.41;;;10.11;41.81
70343;BME280;57767;42.068;24.752;2023-04-28T04:07:36;99186.25;;;10.20;41.17
70343;BME280;57767;42.068;24.752;2023-04-28T04:08:38;99183.25;;;10.30;41.88
70343;BME280;57767;42.068;24.752;2023-04-28T04:09:40;99184.28;;;10.35;40.83
70343;BME280;57767;42.068;24.752;2023-04-28T04:10:42;99190.63;;;10.48;41.36
70343;BME280;57767;42.068;24.752;2023-04-28T04:11:44;99188.41;;;10.58;41.01
70343;BME280;57767;42.068;24.752;2023-04-28T04:12:46;99192.91;;;10.70;39.72
70343;BME280;57767;42.068;24.752;2023-04-28T04:13:47;99197.78;;;10.80;40.66
70343;BME280;57767;42.068;24.752;2023-04-28T04:14:49;99200.03;;;10.90;40.80
70343;BME280;57767;42.068;24.752;2023-04-28T04:15:51;99191.31;;;10.96;39.82
70343;BME280;57767;42.068;24.752;2023-04-28T04:16:53;99197.63;;;11.08;40.31
70343;BME280;57767;42.068;24.752;2023-04-28T04:17:56;99199.03;;;11.17;39.57
70343;BME280;57767;42.068;24.752;2023-04-28T04:18:58;99204.53;;;11.22;39.05
70343;BME280;57767;42.068;24.752;2023-04-28T04:19:59;99198.66;;;11.27;38.82
70343;BME280;57767;42.068;24.752;2023-04-28T04:21:01;99201.09;;;11.35;38.63
70343;BME280;57767;42.068;24.752;2023-04-28T04:22:04;99206.16;;;11.43;38.76
70343;BME280;57767;42.068;24.752;2023-04-28T04:23:05;99197.81;;;11.46;38.49
70343;BME280;57767;42.068;24.752;2023-04-28T04:24:07;99208.38;;;11.59;38.84
70343;BME280;57767;42.068;24.752;2023-04-28T04:25:09;99208.59;;;11.64;38.77
70343;BME280;57767;42.068;24.752;2023-04-28T04:26:10;99199.41;;;11.73;39.31
70343;BME280;57767;42.068;24.752;2023-04-28T04:27:12;99203.06;;;11.86;38.03
70343;BME280;57767;42.068;24.752;2023-04-28T04:28:14;99211.59;;;11.94;38.15
70343;BME280;57767;42.068;24.752;2023-04-28T04:29:16;99218.47;;;12.08;38.95
70343;BME280;57767;42.068;24.752;2023-04-28T04:30:18;99219.06;;;12.17;38.23
70343;BME280;57767;42.068;24.752;2023-04-28T04:31:20;99203.78;;;12.19;37.24
70343;BME280;57767;42.068;24.752;2023-04-28T04:32:23;99215.38;;;12.18;37.48
70343;BME280;57767;42.068;24.752;2023-04-28T04:33:25;99216.53;;;12.35;38.21
70343;BME280;57767;42.068;24.752;2023-04-28T04:34:26;99214.31;;;12.39;36.73
70343;BME280;57767;42.068;24.752;2023-04-28T04:35:28;99220.56;;;12.44;37.25
70343;BME280;57767;42.068;24.752;2023-04-28T04:36:30;99222.75;;;12.54;36.64
70343;BME280;57767;42.068;24.752;2023-04-28T04:37:33;99215.13;;;12.71;36.99
70343;BME280;57767;42.068;24.752;2023-04-28T04:38:35;99225.84;;;12.89;36.96
70343;BME280;57767;42.068;24.752;2023-04-28T04:39:36;99214.06;;;13.10;37.82
70343;BME280;57767;42.068;24.752;2023-04-28T04:40:38;99217.06;;;13.26;37.96
70343;BME280;57767;42.068;24.752;2023-04-28T04:41:40;99221.13;;;13.29;36.63
70343;BME280;57767;42.068;24.752;2023-04-28T04:42:42;99214.06;;;13.41;36.33
70343;BME280;57767;42.068;24.752;2023-04-28T04:43:44;99220.75;;;13.44;34.97
70343;BME280;57767;42.068;24.752;2023-04-28T04:44:46;99221.22;;;13.41;35.58
70343;BME280;57767;42.068;24.752;2023-04-28T04:45:48;99226.41;;;13.54;35.17
70343;BME280;57767;42.068;24.752;2023-04-28T04:46:50;99233.28;;;13.61;35.65
70343;BME280;57767;42.068;24.752;2023-04-28T04:47:52;99237.66;;;13.74;35.25
70343;BME280;57767;42.068;24.752;2023-04-28T04:48:54;99222.25;;;13.83;35.11
70343;BME280;57767;42.068;24.752;2023-04-28T04:49:56;99233.03;;;13.88;34.80
70343;BME280;57767;42.068;24.752;2023-04-28T04:50:58;99236.50;;;13.88;34.64
70343;BME280;57767;42.068;24.752;2023-04-28T04:52:00;99235.75;;;13.99;34.78
70343;BME280;57767;42.068;24.752;2023-04-28T04:53:02;99235.31;;;14.03;34.35
70343;BME280;57767;42.068;24.752;2023-04-28T04:54:03;99240.34;;;14.11;34.29
70343;BME280;57767;42.068;24.752;2023-04-28T04:55:06;99229.13;;;14.09;34.60
70343;BME280;57767;42.068;24.752;2023-04-28T04:56:08;99240.03;;;14.01;34.37
70343;BME280;57767;42.068;24.752;2023-04-28T04:57:10;99239.81;;;14.02;35.04
70343;BME280;57767;42.068;24.752;2023-04-28T04:58:12;99235.53;;;14.01;34.39
70343;BME280;57767;42.068;24.752;2023-04-28T04:59:14;99239.38;;;14.05;34.31
70343;BME280;57767;42.068;24.752;2023-04-28T05:00:16;99242.56;;;14.14;33.51
70343;BME280;57767;42.068;24.752;2023-04-28T05:01:18;99246.25;;;14.13;34.35
70343;BME280;57767;42.068;24.752;2023-04-28T05:02:20;99243.19;;;14.09;33.35
70343;BME280;57767;42.068;24.752;2023-04-28T05:03:22;99248.91;;;14.13;33.26
70343;BME280;57767;42.068;24.752;2023-04-28T05:04:24;99242.97;;;14.11;33.70
70343;BME280;57767;42.068;24.752;2023-04-28T05:05:26;99255.41;;;14.17;34.53
70343;BME280;57767;42.068;24.752;2023-04-28T05:06:28;99246.69;;;14.28;34.51
70343;BME280;57767;42.068;24.752;2023-04-28T05:07:30;99259.84;;;14.41;34.25
70343;BME280;57767;42.068;24.752;2023-04-28T05:08:32;99250.03;;;14.42;34.40
70343;BME280;57767;42.068;24.752;2023-04-28T05:09:33;99263.59;;;14.52;34.41
70343;BME280;57767;42.068;24.752;2023-04-28T05:10:35;99254.22;;;14.49;33.67
70343;BME280;57767;42.068;24.752;2023-04-28T05:11:37;99252.16;;;14.51;33.17
70343;BME280;57767;42.068;24.752;2023-04-28T05:12:39;99249.88;;;14.55;34.35
70343;BME280;57767;42.068;24.752;2023-04-28T05:13:41;99262.53;;;14.71;34.79
70343;BME280;57767;42.068;24.752;2023-04-28T05:14:43;99260.19;;;14.93;33.34
70343;BME280;57767;42.068;24.752;2023-04-28T05:15:44;99249.91;;;14.96;33.39
70343;BME280;57767;42.068;24.752;2023-04-28T05:16:46;99261.66;;;15.19;32.66
70343;BME280;57767;42.068;24.752;2023-04-28T05:17:48;99258.53;;;15.22;33.35
70343;BME280;57767;42.068;24.752;2023-04-28T05:18:50;99261.81;;;15.35;33.37
70343;BME280;57767;42.068;24.752;2023-04-28T05:19:52;99259.38;;;15.46;32.41
70343;BME280;57767;42.068;24.752;2023-04-28T05:20:53;99256.28;;;15.49;32.13
70343;BME280;57767;42.068;24.752;2023-04-28T05:21:55;99255.28;;;15.73;32.14
70343;BME280;57767;42.068;24.752;2023-04-28T05:22:57;99257.13;;;15.84;31.52
70343;BME280;57767;42.068;24.752;2023-04-28T05:23:59;99259.56;;;15.86;32.36
70343;BME280;57767;42.068;24.752;2023-04-28T05:25:00;99255.50;;;15.83;31.38
70343;BME280;57767;42.068;24.752;2023-04-28T05:26:03;99266.63;;;15.92;31.81
70343;BME280;57767;42.068;24.752;2023-04-28T05:27:05;99260.16;;;15.88;32.38